sensor_id;sensor_type;location;lat;lon;timestamp;temperature;humidity
79571;DHT22;69034;49.444;7.758;2023-09-07T00:00:40;20.50;58.30
79571;DHT22;69034;49.444;7.758;2023-09-07T00:04:40;20.40;58.30
79571;DHT22;69034;49.444;7.758;2023-09-07T00:08:41;20.40;58.20
79571;DHT22;69034;49.444;7.758;2023-09-07T00:12:42;20.30;58.50
79571;DHT22;69034;49.444;7.758;2023-09-07T00:16:42;20.10;58.80
79571;DHT22;69034;49.444;7.758;2023-09-07T00:20:43;19.90;59.10
79571;DHT22;69034;49.444;7.758;2023-09-07T00:24:44;19.80;59.30
79571;DHT22;69034;49.444;7.758;2023-09-07T00:28:45;19.60;59.50
79571;DHT22;69034;49.444;7.758;2023-09-07T00:32:46;19.60;59.90
79571;DHT22;69034;49.444;7.758;2023-09-07T00:36:46;19.50;60.50
79571;DHT22;69034;49.444;7.758;2023-09-07T00:40:48;19.30;60.80
79571;DHT22;69034;49.444;7.758;2023-09-07T00:44:49;19.30;60.90
79571;DHT22;69034;49.444;7.758;2023-09-07T00:48:50;19.20;61.10
79571;DHT22;69034;49.444;7.758;2023-09-07T00:52:50;19.20;61.00
79571;DHT22;69034;49.444;7.758;2023-09-07T00:56:51;19.20;61.20
79571;DHT22;69034;49.444;7.758;2023-09-07T01:00:52;19.10;61.40
79571;DHT22;69034;49.444;7.758;2023-09-07T01:04:53;19.10;61.40
79571;DHT22;69034;49.444;7.758;2023-09-07T01:08:55;19.00;61.40
79571;DHT22;69034;49.444;7.758;2023-09-07T01:12:57;19.00;61.40
79571;DHT22;69034;49.444;7.758;2023-09-07T01:16:58;18.90;61.60
79571;DHT22;69034;49.444;7.758;2023-09-07T01:20:59;18.90;61.70
79571;DHT22;69034;49.444;7.758;2023-09-07T01:25:00;18.80;61.70
79571;DHT22;69034;49.444;7.758;2023-09-07T01:29:02;18.80;61.70
79571;DHT22;69034;49.444;7.758;2023-09-07T01:33:03;18.70;61.80
79571;DHT22;69034;49.444;7.758;2023-09-07T01:37:04;18.70;61.90
79571;DHT22;69034;49.444;7.758;2023-09-07T01:41:04;18.60;62.10
79571;DHT22;69034;49.444;7.758;2023-09-07T01:45:06;18.60;62.20
79571;DHT22;69034;49.444;7.758;2023-09-07T01:49:06;18.50;62.30
79571;DHT22;69034;49.444;7.758;2023-09-07T01:53:07;18.60;62.30
79571;DHT22;69034;49.444;7.758;2023-09-07T01:57:08;18.70;62.10
79571;DHT22;69034;49.444;7.758;2023-09-07T02:01:23;18.80;62.00
79571;DHT22;69034;49.444;7.758;2023-09-07T02:05:24;18.80;62.30
79571;DHT22;69034;49.444;7.758;2023-09-07T02:09:25;18.80;62.50
79571;DHT22;69034;49.444;7.758;2023-09-07T02:13:25;18.80;62.50
79571;DHT22;69034;49.444;7.758;2023-09-07T02:17:26;18.90;62.30
79571;DHT22;69034;49.444;7.758;2023-09-07T02:21:27;18.90;62.10
79571;DHT22;69034;49.444;7.758;2023-09-07T02:25:28;18.90;62.20
79571;DHT22;69034;49.444;7.758;2023-09-07T02:29:28;18.80;62.60
79571;DHT22;69034;49.444;7.758;2023-09-07T02:33:30;18.70;62.90
79571;DHT22;69034;49.444;7.758;2023-09-07T02:37:31;18.60;62.90
79571;DHT22;69034;49.444;7.758;2023-09-07T02:41:31;18.70;62.60
79571;DHT22;69034;49.444;7.758;2023-09-07T02:45:32;18.80;62.40
79571;DHT22;69034;49.444;7.758;2023-09-07T02:49:33;18.80;62.30
79571;DHT22;69034;49.444;7.758;2023-09-07T02:53:33;18.80;62.10
79571;DHT22;69034;49.444;7.758;2023-09-07T02:57:35;18.80;62.10
79571;DHT22;69034;49.444;7.758;2023-09-07T03:01:37;18.80;62.00
79571;DHT22;69034;49.444;7.758;2023-09-07T03:05:40;18.80;62.00
79571;DHT22;69034;49.444;7.758;2023-09-07T03:09:41;18.80;62.00
79571;DHT22;69034;49.444;7.758;2023-09-07T03:13:42;18.70;61.90
79571;DHT22;69034;49.444;7.758;2023-09-07T03:17:43;18.60;61.90
79571;DHT22;69034;49.444;7.758;2023-09-07T03:21:44;18.40;62.20
79571;DHT22;69034;49.444;7.758;2023-09-07T03:25:44;18.30;62.30
79571;DHT22;69034;49.444;7.758;2023-09-07T03:29:45;18.10;62.50
79571;DHT22;69034;49.444;7.758;2023-09-07T03:33:45;18.00;62.60
79571;DHT22;69034;49.444;7.758;2023-09-07T03:37:46;17.90;62.80
79571;DHT22;69034;49.444;7.758;2023-09-07T03:41:47;17.80;62.90
79571;DHT22;69034;49.444;7.758;2023-09-07T03:45:48;17.80;62.90
79571;DHT22;69034;49.444;7.758;2023-09-07T03:49:49;17.70;62.70
79571;DHT22;69034;49.444;7.758;2023-09-07T03:53:49;17.60;62.90
79571;DHT22;69034;49.444;7.758;2023-09-07T03:57:50;17.60;63.10
79571;DHT22;69034;49.444;7.758;2023-09-07T04:01:51;17.50;63.30
79571;DHT22;69034;49.444;7.758;2023-09-07T04:05:51;17.50;63.30
79571;DHT22;69034;49.444;7.758;2023-09-07T04:09:53;17.50;63.40
79571;DHT22;69034;49.444;7.758;2023-09-07T04:13:54;17.40;63.60
79571;DHT22;69034;49.444;7.758;2023-09-07T04:17:54;17.40;63.80
79571;DHT22;69034;49.444;7.758;2023-09-07T04:21:56;17.30;64.10
79571;DHT22;69034;49.444;7.758;2023-09-07T04:26:10;17.20;64.20
79571;DHT22;69034;49.444;7.758;2023-09-07T04:30:12;17.20;64.30
79571;DHT22;69034;49.444;7.758;2023-09-07T04:34:12;17.20;64.20
79571;DHT22;69034;49.444;7.758;2023-09-07T04:38:13;17.10;64.30
79571;DHT22;69034;49.444;7.758;2023-09-07T04:42:14;17.70;64.70
79571;DHT22;69034;49.444;7.758;2023-09-07T04:46:15;18.40;63.60
79571;DHT22;69034;49.444;7.758;2023-09-07T04:50:15;18.70;63.10
79571;DHT22;69034;49.444;7.758;2023-09-07T04:54:16;18.90;62.70
79571;DHT22;69034;49.444;7.758;2023-09-07T04:58:17;19.10;62.30
79571;DHT22;69034;49.444;7.758;2023-09-07T05:02:17;19.20;61.90
79571;DHT22;69034;49.444;7.758;2023-09-07T05:06:18;19.30;62.00
79571;DHT22;69034;49.444;7.758;2023-09-07T05:10:19;19.50;61.80
79571;DHT22;69034;49.444;7.758;2023-09-07T05:14:19;19.70;61.60
79571;DHT22;69034;49.444;7.758;2023-09-07T05:18:20;19.90;61.20
79571;DHT22;69034;49.444;7.758;2023-09-07T05:22:21;20.10;60.80
79571;DHT22;69034;49.444;7.758;2023-09-07T05:26:22;20.20;60.50
79571;DHT22;69034;49.444;7.758;2023-09-07T05:30:26;20.40;60.10
79571;DHT22;69034;49.444;7.758;2023-09-07T05:34:27;20.50;59.80
79571;DHT22;69034;49.444;7.758;2023-09-07T05:38:28;20.60;59.60
79571;DHT22;69034;49.444;7.758;2023-09-07T05:42:29;20.70;59.40
79571;DHT22;69034;49.444;7.758;2023-09-07T05:46:29;20.70;59.10
79571;DHT22;69034;49.444;7.758;2023-09-07T05:50:33;20.70;58.90
79571;DHT22;69034;49.444;7.758;2023-09-07T05:54:33;20.80;58.70
79571;DHT22;69034;49.444;7.758;2023-09-07T05:58:34;20.80;58.50
79571;DHT22;69034;49.444;7.758;2023-09-07T06:02:35;20.90;58.40
79571;DHT22;69034;49.444;7.758;2023-09-07T06:06:36;21.00;58.10
79571;DHT22;69034;49.444;7.758;2023-09-07T06:10:36;21.00;57.90
79571;DHT22;69034;49.444;7.758;2023-09-07T06:14:37;21.00;57.80
79571;DHT22;69034;49.444;7.758;2023-09-07T06:18:38;21.10;57.60
79571;DHT22;69034;49.444;7.758;2023-09-07T06:22:38;21.10;57.50
79571;DHT22;69034;49.444;7.758;2023-09-07T06:26:39;21.10;57.30
79571;DHT22;69034;49.444;7.758;2023-09-07T06:30:40;21.20;57.20
79571;DHT22;69034;49.444;7.758;2023-09-07T06:34:40;21.20;57.10
79571;DHT22;69034;49.444;7.758;2023-09-07T06:38:41;21.10;57.20
79571;DHT22;69034;49.444;7.758;2023-09-07T06:42:42;21.10;57.20
79571;DHT22;69034;49.444;7.758;2023-09-07T06:46:42;21.10;57.20
79571;DHT22;69034;49.444;7.758;2023-09-07T06:50:43;21.20;57.10
79571;DHT22;69034;49.444;7.758;2023-09-07T06:54:43;21.30;57.00
79571;DHT22;69034;49.444;7.758;2023-09-07T06:58:44;21.40;56.80
79571;DHT22;69034;49.444;7.758;2023-09-07T07:02:45;21.60;56.60
79571;DHT22;69034;49.444;7.758;2023-09-07T07:06:45;21.80;56.30
79571;DHT22;69034;49.444;7.758;2023-09-07T07:10:46;22.00;56.10
79571;DHT22;69034;49.444;7.758;2023-09-07T07:14:47;22.20;55.70
79571;DHT22;69034;49.444;7.758;2023-09-07T07:18:47;22.40;55.50
79571;DHT22;69034;49.444;7.758;2023-09-07T07:22:48;22.60;55.30
79571;DHT22;69034;49.444;7.758;2023-09-07T07:26:48;22.80;55.00
79571;DHT22;69034;49.444;7.758;2023-09-07T07:30:49;23.00;54.80
79571;DHT22;69034;49.444;7.758;2023-09-07T07:34:52;23.20;54.50
79571;DHT22;69034;49.444;7.758;2023-09-07T07:38:53;23.40;54.30
79571;DHT22;69034;49.444;7.758;2023-09-07T07:42:55;23.60;54.10
79571;DHT22;69034;49.444;7.758;2023-09-07T07:46:55;23.90;53.80
79571;DHT22;69034;49.444;7.758;2023-09-07T07:50:56;24.10;53.50
79571;DHT22;69034;49.444;7.758;2023-09-07T07:54:57;24.30;53.30
79571;DHT22;69034;49.444;7.758;2023-09-07T07:58:59;24.60;53.20
79571;DHT22;69034;49.444;7.758;2023-09-07T08:03:00;24.80;53.10
79571;DHT22;69034;49.444;7.758;2023-09-07T08:07:01;25.20;53.20
79571;DHT22;69034;49.444;7.758;2023-09-07T08:11:04;25.50;53.20
79571;DHT22;69034;49.444;7.758;2023-09-07T08:15:06;25.90;53.20
79571;DHT22;69034;49.444;7.758;2023-09-07T08:19:07;26.30;52.80
79571;DHT22;69034;49.444;7.758;2023-09-07T08:23:07;26.70;52.20
79571;DHT22;69034;49.444;7.758;2023-09-07T08:27:10;27.10;51.80
79571;DHT22;69034;49.444;7.758;2023-09-07T08:31:12;27.50;51.10
79571;DHT22;69034;49.444;7.758;2023-09-07T08:35:14;27.80;50.60
79571;DHT22;69034;49.444;7.758;2023-09-07T08:39:17;28.20;50.30
79571;DHT22;69034;49.444;7.758;2023-09-07T08:43:19;28.50;50.10
79571;DHT22;69034;49.444;7.758;2023-09-07T08:47:20;28.90;49.40
79571;DHT22;69034;49.444;7.758;2023-09-07T08:51:22;29.20;48.90
79571;DHT22;69034;49.444;7.758;2023-09-07T08:55:23;29.60;48.50
79571;DHT22;69034;49.444;7.758;2023-09-07T08:59:24;29.90;48.00
79571;DHT22;69034;49.444;7.758;2023-09-07T09:03:25;30.20;47.20
79571;DHT22;69034;49.444;7.758;2023-09-07T09:07:26;30.60;46.40
79571;DHT22;69034;49.444;7.758;2023-09-07T09:11:26;30.80;45.90
79571;DHT22;69034;49.444;7.758;2023-09-07T09:15:30;31.10;45.30
79571;DHT22;69034;49.444;7.758;2023-09-07T09:19:34;31.40;44.80
79571;DHT22;69034;49.444;7.758;2023-09-07T09:23:37;31.70;44.10
79571;DHT22;69034;49.444;7.758;2023-09-07T09:27:37;31.90;43.20
79571;DHT22;69034;49.444;7.758;2023-09-07T09:31:38;32.10;42.90
79571;DHT22;69034;49.444;7.758;2023-09-07T09:35:39;32.40;42.20
79571;DHT22;69034;49.444;7.758;2023-09-07T09:39:40;32.80;41.50
79571;DHT22;69034;49.444;7.758;2023-09-07T09:43:41;33.10;40.60
79571;DHT22;69034;49.444;7.758;2023-09-07T09:47:42;33.40;40.60
79571;DHT22;69034;49.444;7.758;2023-09-07T09:51:43;33.70;40.20
79571;DHT22;69034;49.444;7.758;2023-09-07T09:55:46;34.10;39.30
79571;DHT22;69034;49.444;7.758;2023-09-07T09:59:47;34.40;38.60
79571;DHT22;69034;49.444;7.758;2023-09-07T10:03:49;34.70;38.20
79571;DHT22;69034;49.444;7.758;2023-09-07T10:07:50;35.00;37.80
79571;DHT22;69034;49.444;7.758;2023-09-07T10:11:53;35.20;36.70
79571;DHT22;69034;49.444;7.758;2023-09-07T10:16:03;35.30;36.40
79571;DHT22;69034;49.444;7.758;2023-09-07T10:20:08;35.70;35.80
79571;DHT22;69034;49.444;7.758;2023-09-07T10:24:10;36.00;35.50
79571;DHT22;69034;49.444;7.758;2023-09-07T10:28:27;36.30;34.80
79571;DHT22;69034;49.444;7.758;2023-09-07T10:32:40;36.90;33.90
79571;DHT22;69034;49.444;7.758;2023-09-07T10:36:42;37.70;33.70
79571;DHT22;69034;49.444;7.758;2023-09-07T10:40:45;38.40;33.70
79571;DHT22;69034;49.444;7.758;2023-09-07T10:44:46;39.30;32.60
79571;DHT22;69034;49.444;7.758;2023-09-07T10:48:52;40.00;31.90
79571;DHT22;69034;49.444;7.758;2023-09-07T10:52:53;40.80;30.90
79571;DHT22;69034;49.444;7.758;2023-09-07T10:56:54;42.00;29.90
79571;DHT22;69034;49.444;7.758;2023-09-07T11:00:58;42.70;28.60
79571;DHT22;69034;49.444;7.758;2023-09-07T11:05:20;43.80;27.50
79571;DHT22;69034;49.444;7.758;2023-09-07T11:09:22;44.80;26.10
79571;DHT22;69034;49.444;7.758;2023-09-07T11:13:24;45.40;25.80
79571;DHT22;69034;49.444;7.758;2023-09-07T11:17:28;45.70;25.20
79571;DHT22;69034;49.444;7.758;2023-09-07T11:21:30;46.20;24.70
79571;DHT22;69034;49.444;7.758;2023-09-07T11:25:37;46.70;19.60
79571;DHT22;69034;49.444;7.758;2023-09-07T11:29:38;46.60;19.60
79571;DHT22;69034;49.444;7.758;2023-09-07T11:33:41;46.40;19.60
79571;DHT22;69034;49.444;7.758;2023-09-07T11:37:41;46.50;19.60
79571;DHT22;69034;49.444;7.758;2023-09-07T11:41:43;46.30;19.60
79571;DHT22;69034;49.444;7.758;2023-09-07T11:45:46;46.10;19.50
79571;DHT22;69034;49.444;7.758;2023-09-07T11:49:47;45.90;19.10
79571;DHT22;69034;49.444;7.758;2023-09-07T11:53:49;45.90;19.10
79571;DHT22;69034;49.444;7.758;2023-09-07T11:57:51;46.10;19.10
79571;DHT22;69034;49.444;7.758;2023-09-07T12:01:52;46.30;18.90
79571;DHT22;69034;49.444;7.758;2023-09-07T12:05:53;46.60;18.70
79571;DHT22;69034;49.444;7.758;2023-09-07T12:09:54;46.80;18.60
79571;DHT22;69034;49.444;7.758;2023-09-07T12:13:59;47.50;17.90
79571;DHT22;69034;49.444;7.758;2023-09-07T12:18:00;48.20;17.40
79571;DHT22;69034;49.444;7.758;2023-09-07T12:22:02;48.80;17.30
79571;DHT22;69034;49.444;7.758;2023-09-07T12:26:04;49.40;16.70
79571;DHT22;69034;49.444;7.758;2023-09-07T12:30:06;49.50;16.20
79571;DHT22;69034;49.444;7.758;2023-09-07T12:34:12;49.60;16.30
79571;DHT22;69034;49.444;7.758;2023-09-07T12:38:12;49.60;16.20
79571;DHT22;69034;49.444;7.758;2023-09-07T12:42:18;49.60;16.50
79571;DHT22;69034;49.444;7.758;2023-09-07T12:46:18;49.90;16.50
79571;DHT22;69034;49.444;7.758;2023-09-07T12:50:19;50.10;16.30
79571;DHT22;69034;49.444;7.758;2023-09-07T12:54:20;50.20;16.10
79571;DHT22;69034;49.444;7.758;2023-09-07T12:58:22;50.10;16.10
79571;DHT22;69034;49.444;7.758;2023-09-07T13:02:23;49.90;15.90
79571;DHT22;69034;49.444;7.758;2023-09-07T13:06:25;50.10;15.70
79571;DHT22;69034;49.444;7.758;2023-09-07T13:10:25;50.30;15.60
79571;DHT22;69034;49.444;7.758;2023-09-07T13:14:28;50.40;15.40
79571;DHT22;69034;49.444;7.758;2023-09-07T13:18:30;50.30;15.10
79571;DHT22;69034;49.444;7.758;2023-09-07T13:22:32;50.30;15.30
79571;DHT22;69034;49.444;7.758;2023-09-07T13:26:32;50.70;15.00
79571;DHT22;69034;49.444;7.758;2023-09-07T13:30:33;51.00;14.80
79571;DHT22;69034;49.444;7.758;2023-09-07T13:34:33;51.30;14.50
79571;DHT22;69034;49.444;7.758;2023-09-07T13:38:35;51.50;14.60
79571;DHT22;69034;49.444;7.758;2023-09-07T13:42:36;52.10;14.30
79571;DHT22;69034;49.444;7.758;2023-09-07T13:46:40;52.30;14.30
79571;DHT22;69034;49.444;7.758;2023-09-07T13:50:41;52.50;14.10
79571;DHT22;69034;49.444;7.758;2023-09-07T13:54:46;52.40;14.20
79571;DHT22;69034;49.444;7.758;2023-09-07T13:58:49;52.20;14.10
79571;DHT22;69034;49.444;7.758;2023-09-07T14:02:50;52.20;14.10
79571;DHT22;69034;49.444;7.758;2023-09-07T14:06:50;52.40;14.20
79571;DHT22;69034;49.444;7.758;2023-09-07T14:10:51;52.50;13.90
79571;DHT22;69034;49.444;7.758;2023-09-07T14:14:53;52.90;13.80
79571;DHT22;69034;49.444;7.758;2023-09-07T14:18:54;53.20;13.60
79571;DHT22;69034;49.444;7.758;2023-09-07T14:22:56;53.40;13.40
79571;DHT22;69034;49.444;7.758;2023-09-07T14:26:58;53.50;13.40
79571;DHT22;69034;49.444;7.758;2023-09-07T14:31:02;53.60;13.40
79571;DHT22;69034;49.444;7.758;2023-09-07T14:35:09;53.70;13.30
79571;DHT22;69034;49.444;7.758;2023-09-07T14:39:11;53.70;13.10
79571;DHT22;69034;49.444;7.758;2023-09-07T14:43:12;53.80;13.00
79571;DHT22;69034;49.444;7.758;2023-09-07T14:47:14;53.70;13.00
79571;DHT22;69034;49.444;7.758;2023-09-07T14:51:15;53.50;12.80
79571;DHT22;69034;49.444;7.758;2023-09-07T14:55:16;53.20;13.10
79571;DHT22;69034;49.444;7.758;2023-09-07T14:59:18;53.10;13.20
79571;DHT22;69034;49.444;7.758;2023-09-07T15:03:19;53.00;13.30
79571;DHT22;69034;49.444;7.758;2023-09-07T15:07:25;52.80;13.30
79571;DHT22;69034;49.444;7.758;2023-09-07T15:11:25;52.60;13.30
79571;DHT22;69034;49.444;7.758;2023-09-07T15:15:27;52.20;13.30
79571;DHT22;69034;49.444;7.758;2023-09-07T15:19:29;52.00;13.50
79571;DHT22;69034;49.444;7.758;2023-09-07T15:23:30;51.80;13.60
79571;DHT22;69034;49.444;7.758;2023-09-07T15:27:31;51.50;13.70
79571;DHT22;69034;49.444;7.758;2023-09-07T15:31:34;51.10;13.80
79571;DHT22;69034;49.444;7.758;2023-09-07T15:35:35;50.70;13.90
79571;DHT22;69034;49.444;7.758;2023-09-07T15:39:36;50.10;14.10
79571;DHT22;69034;49.444;7.758;2023-09-07T15:43:36;49.50;14.30
79571;DHT22;69034;49.444;7.758;2023-09-07T15:47:37;48.90;14.50
79571;DHT22;69034;49.444;7.758;2023-09-07T15:51:38;48.40;14.70
79571;DHT22;69034;49.444;7.758;2023-09-07T15:55:41;47.90;14.90
79571;DHT22;69034;49.444;7.758;2023-09-07T15:59:47;47.30;15.20
79571;DHT22;69034;49.444;7.758;2023-09-07T16:03:48;46.70;15.50
79571;DHT22;69034;49.444;7.758;2023-09-07T16:07:49;46.20;15.60
79571;DHT22;69034;49.444;7.758;2023-09-07T16:11:49;45.50;15.90
79571;DHT22;69034;49.444;7.758;2023-09-07T16:15:50;44.80;16.30
79571;DHT22;69034;49.444;7.758;2023-09-07T16:19:51;44.10;16.50
79571;DHT22;69034;49.444;7.758;2023-09-07T16:23:52;43.60;16.90
79571;DHT22;69034;49.444;7.758;2023-09-07T16:27:53;43.00;17.30
79571;DHT22;69034;49.444;7.758;2023-09-07T16:31:56;42.40;17.70
79571;DHT22;69034;49.444;7.758;2023-09-07T16:35:56;42.10;17.90
79571;DHT22;69034;49.444;7.758;2023-09-07T16:39:57;41.70;18.20
79571;DHT22;69034;49.444;7.758;2023-09-07T16:43:58;41.30;18.50
79571;DHT22;69034;49.444;7.758;2023-09-07T16:47:59;40.80;18.80
79571;DHT22;69034;49.444;7.758;2023-09-07T16:51:59;40.30;19.00
79571;DHT22;69034;49.444;7.758;2023-09-07T16:56:00;40.00;19.40
79571;DHT22;69034;49.444;7.758;2023-09-07T17:00:03;39.50;19.80
79571;DHT22;69034;49.444;7.758;2023-09-07T17:04:05;39.10;24.10
79571;DHT22;69034;49.444;7.758;2023-09-07T17:08:06;38.60;24.40
79571;DHT22;69034;49.444;7.758;2023-09-07T17:12:07;38.20;24.90
79571;DHT22;69034;49.444;7.758;2023-09-07T17:16:08;37.70;25.20
79571;DHT22;69034;49.444;7.758;2023-09-07T17:20:11;37.20;25.70
79571;DHT22;69034;49.444;7.758;2023-09-07T17:24:13;36.60;26.20
79571;DHT22;69034;49.444;7.758;2023-09-07T17:28:15;36.00;26.80
79571;DHT22;69034;49.444;7.758;2023-09-07T17:32:15;35.40;27.50
79571;DHT22;69034;49.444;7.758;2023-09-07T17:36:19;34.80;28.10
79571;DHT22;69034;49.444;7.758;2023-09-07T17:40:20;34.20;28.60
79571;DHT22;69034;49.444;7.758;2023-09-07T17:44:20;33.70;29.30
79571;DHT22;69034;49.444;7.758;2023-09-07T17:48:21;33.20;29.80
79571;DHT22;69034;49.444;7.758;2023-09-07T17:52:23;32.90;30.30
79571;DHT22;69034;49.444;7.758;2023-09-07T17:56:25;32.40;30.90
79571;DHT22;69034;49.444;7.758;2023-09-07T18:00:26;32.00;31.70
79571;DHT22;69034;49.444;7.758;2023-09-07T18:04:27;31.70;32.30
79571;DHT22;69034;49.444;7.758;2023-09-07T18:08:27;31.30;32.90
79571;DHT22;69034;49.444;7.758;2023-09-07T18:12:28;31.00;33.90
79571;DHT22;69034;49.444;7.758;2023-09-07T18:16:29;30.70;34.60
79571;DHT22;69034;49.444;7.758;2023-09-07T18:20:32;30.40;35.30
79571;DHT22;69034;49.444;7.758;2023-09-07T18:24:32;30.10;36.10
79571;DHT22;69034;49.444;7.758;2023-09-07T18:28:34;29.90;36.70
79571;DHT22;69034;49.444;7.758;2023-09-07T18:32:36;29.70;37.30
79571;DHT22;69034;49.444;7.758;2023-09-07T18:36:37;29.50;38.10
79571;DHT22;69034;49.444;7.758;2023-09-07T18:40:38;29.20;38.60
79571;DHT22;69034;49.444;7.758;2023-09-07T18:44:39;29.10;39.00
79571;DHT22;69034;49.444;7.758;2023-09-07T18:48:40;28.90;39.60
79571;DHT22;69034;49.444;7.758;2023-09-07T18:52:41;28.70;40.20
79571;DHT22;69034;49.444;7.758;2023-09-07T18:56:42;28.50;40.80
79571;DHT22;69034;49.444;7.758;2023-09-07T19:00:43;28.30;41.30
79571;DHT22;69034;49.444;7.758;2023-09-07T19:04:45;28.20;41.60
79571;DHT22;69034;49.444;7.758;2023-09-07T19:08:45;28.00;42.20
79571;DHT22;69034;49.444;7.758;2023-09-07T19:12:46;27.90;42.40
79571;DHT22;69034;49.444;7.758;2023-09-07T19:16:47;27.80;42.80
79571;DHT22;69034;49.444;7.758;2023-09-07T19:20:53;27.70;43.20
79571;DHT22;69034;49.444;7.758;2023-09-07T19:24:54;27.60;43.70
79571;DHT22;69034;49.444;7.758;2023-09-07T19:28:55;27.50;44.00
79571;DHT22;69034;49.444;7.758;2023-09-07T19:32:56;27.40;44.40
79571;DHT22;69034;49.444;7.758;2023-09-07T19:36:58;27.30;44.80
79571;DHT22;69034;49.444;7.758;2023-09-07T19:40:59;27.20;44.90
79571;DHT22;69034;49.444;7.758;2023-09-07T19:45:00;27.20;44.80
79571;DHT22;69034;49.444;7.758;2023-09-07T19:49:05;27.10;44.90
79571;DHT22;69034;49.444;7.758;2023-09-07T19:53:05;27.00;45.20
79571;DHT22;69034;49.444;7.758;2023-09-07T19:57:06;27.00;45.60
79571;DHT22;69034;49.444;7.758;2023-09-07T20:01:26;26.90;45.70
79571;DHT22;69034;49.444;7.758;2023-09-07T20:05:26;26.80;46.00
79571;DHT22;69034;49.444;7.758;2023-09-07T20:09:28;26.70;46.10
79571;DHT22;69034;49.444;7.758;2023-09-07T20:13:30;26.60;46.30
79571;DHT22;69034;49.444;7.758;2023-09-07T20:17:31;26.60;46.40
79571;DHT22;69034;49.444;7.758;2023-09-07T20:21:32;26.50;46.60
79571;DHT22;69034;49.444;7.758;2023-09-07T20:25:33;26.40;47.00
79571;DHT22;69034;49.444;7.758;2023-09-07T20:29:35;26.30;47.10
79571;DHT22;69034;49.444;7.758;2023-09-07T20:33:37;26.00;47.40
79571;DHT22;69034;49.444;7.758;2023-09-07T20:37:39;25.70;47.90
79571;DHT22;69034;49.444;7.758;2023-09-07T20:41:43;25.50;48.10
79571;DHT22;69034;49.444;7.758;2023-09-07T20:45:44;25.40;48.30
79571;DHT22;69034;49.444;7.758;2023-09-07T20:49:46;25.20;48.60
79571;DHT22;69034;49.444;7.758;2023-09-07T20:53:47;25.10;48.90
79571;DHT22;69034;49.444;7.758;2023-09-07T20:57:48;25.00;49.20
79571;DHT22;69034;49.444;7.758;2023-09-07T21:01:53;24.80;49.60
79571;DHT22;69034;49.444;7.758;2023-09-07T21:05:53;24.80;49.90
79571;DHT22;69034;49.444;7.758;2023-09-07T21:09:55;24.70;50.10
79571;DHT22;69034;49.444;7.758;2023-09-07T21:13:57;24.50;50.50
79571;DHT22;69034;49.444;7.758;2023-09-07T21:17:59;24.40;50.80
79571;DHT22;69034;49.444;7.758;2023-09-07T21:22:00;24.30;50.90
79571;DHT22;69034;49.444;7.758;2023-09-07T21:26:02;24.20;51.10
79571;DHT22;69034;49.444;7.758;2023-09-07T21:30:07;24.10;51.40
79571;DHT22;69034;49.444;7.758;2023-09-07T21:34:09;24.00;51.60
79571;DHT22;69034;49.444;7.758;2023-09-07T21:38:09;23.90;51.90
79571;DHT22;69034;49.444;7.758;2023-09-07T21:42:12;23.90;52.10
79571;DHT22;69034;49.444;7.758;2023-09-07T21:46:14;23.80;52.20
79571;DHT22;69034;49.444;7.758;2023-09-07T21:50:17;23.70;52.30
79571;DHT22;69034;49.444;7.758;2023-09-07T21:54:17;23.60;52.60
79571;DHT22;69034;49.444;7.758;2023-09-07T21:58:19;23.60;52.80
79571;DHT22;69034;49.444;7.758;2023-09-07T22:02:21;23.50;53.00
79571;DHT22;69034;49.444;7.758;2023-09-07T22:06:24;23.40;53.20
79571;DHT22;69034;49.444;7.758;2023-09-07T22:10:25;23.30;53.20
79571;DHT22;69034;49.444;7.758;2023-09-07T22:14:27;23.20;53.40
79571;DHT22;69034;49.444;7.758;2023-09-07T22:18:28;23.10;53.60
79571;DHT22;69034;49.444;7.758;2023-09-07T22:22:29;23.10;53.80
79571;DHT22;69034;49.444;7.758;2023-09-07T22:26:30;23.00;53.90
79571;DHT22;69034;49.444;7.758;2023-09-07T22:30:31;22.90;54.00
79571;DHT22;69034;49.444;7.758;2023-09-07T22:34:34;22.80;54.00
79571;DHT22;69034;49.444;7.758;2023-09-07T22:38:36;22.80;54.30
79571;DHT22;69034;49.444;7.758;2023-09-07T22:42:36;22.70;54.40
79571;DHT22;69034;49.444;7.758;2023-09-07T22:46:37;22.60;54.70
79571;DHT22;69034;49.444;7.758;2023-09-07T22:50:41;22.50;54.90
79571;DHT22;69034;49.444;7.758;2023-09-07T22:54:47;22.40;55.10
79571;DHT22;69034;49.444;7.758;2023-09-07T22:58:48;22.30;55.20
79571;DHT22;69034;49.444;7.758;2023-09-07T23:02:49;22.30;55.40
79571;DHT22;69034;49.444;7.758;2023-09-07T23:06:51;22.20;55.50
79571;DHT22;69034;49.444;7.758;2023-09-07T23:10:55;22.10;55.50
79571;DHT22;69034;49.444;7.758;2023-09-07T23:14:56;22.10;55.70
79571;DHT22;69034;49.444;7.758;2023-09-07T23:18:58;22.00;55.80
79571;DHT22;69034;49.444;7.758;2023-09-07T23:23:00;21.90;56.00
79571;DHT22;69034;49.444;7.758;2023-09-07T23:27:01;21.80;56.10
79571;DHT22;69034;49.444;7.758;2023-09-07T23:31:03;21.80;56.10
79571;DHT22;69034;49.444;7.758;2023-09-07T23:35:06;21.70;56.30
79571;DHT22;69034;49.444;7.758;2023-09-07T23:39:08;21.60;56.40
79571;DHT22;69034;49.444;7.758;2023-09-07T23:43:09;21.60;56.50
79571;DHT22;69034;49.444;7.758;2023-09-07T23:47:10;21.50;56.60
79571;DHT22;69034;49.444;7.758;2023-09-07T23:51:12;21.40;56.70
79571;DHT22;69034;49.444;7.758;2023-09-07T23:55:13;21.30;56.70
79571;DHT22;69034;49.444;7.758;2023-09-07T23:59:15;21.30;56.90
